sensor_id;sensor_type;location;lat;lon;timestamp;pressure;altitude;pressure_sealevel;temperature;humidity
59103;BME280;43999;51.660;5.616;2022-09-21T00:01:29;102443.78;;;11.02;100.00
59103;BME280;43999;51.660;5.616;2022-09-21T00:04:02;102447.31;;;11.01;100.00
59103;BME280;43999;51.660;5.616;2022-09-21T00:06:31;102448.28;;;10.99;100.00
59103;BME280;43999;51.660;5.616;2022-09-21T00:09:00;102452.59;;;11.00;100.00
59103;BME280;43999;51.660;5.616;2022-09-21T00:11:31;102437.78;;;10.99;100.00
59103;BME280;43999;51.660;5.616;2022-09-21T00:14:01;102449.97;;;11.00;100.00
59103;BME280;43999;51.660;5.616;2022-09-21T00:16:33;102447.41;;;10.98;100.00
59103;BME280;43999;51.660;5.616;2022-09-21T00:19:01;102441.34;;;10.96;100.00
59103;BME280;43999;51.660;5.616;2022-09-21T00:21:29;102428.28;;;10.94;100.00
59103;BME280;43999;51.660;5.616;2022-09-21T00:23:57;102444.97;;;10.92;100.00
59103;BME280;43999;51.660;5.616;2022-09-21T00:26:26;102436.28;;;10.90;100.00
59103;BME280;43999;51.660;5.616;2022-09-21T00:28:58;102431.13;;;10.87;100.00
59103;BME280;43999;51.660;5.616;2022-09-21T00:31:28;102436.44;;;10.85;100.00
59103;BME280;43999;51.660;5.616;2022-09-21T00:33:58;102433.84;;;10.84;100.00
59103;BME280;43999;51.660;5.616;2022-09-21T00:36:26;102432.16;;;10.81;100.00
59103;BME280;43999;51.660;5.616;2022-09-21T00:38:56;102438.38;;;10.79;100.00
59103;BME280;43999;51.660;5.616;2022-09-21T00:41:28;102433.22;;;10.75;100.00
59103;BME280;43999;51.660;5.616;2022-09-21T00:44:27;102443.75;;;10.74;100.00
59103;BME280;43999;51.660;5.616;2022-09-21T00:47:09;102435.09;;;10.70;100.00
59103;BME280;43999;51.660;5.616;2022-09-21T00:49:43;102434.31;;;10.68;100.00
59103;BME280;43999;51.660;5.616;2022-09-21T00:52:17;102433.53;;;10.65;100.00
59103;BME280;43999;51.660;5.616;2022-09-21T00:54:53;102446.72;;;10.62;100.00
59103;BME280;43999;51.660;5.616;2022-09-21T00:57:25;102443.34;;;10.56;100.00
59103;BME280;43999;51.660;5.616;2022-09-21T00:59:55;102442.59;;;10.53;100.00
59103;BME280;43999;51.660;5.616;2022-09-21T01:02:27;102445.31;;;10.50;100.00
59103;BME280;43999;51.660;5.616;2022-09-21T01:04:55;102443.66;;;10.47;100.00
59103;BME280;43999;51.660;5.616;2022-09-21T01:07:26;102442.00;;;10.43;100.00
59103;BME280;43999;51.660;5.616;2022-09-21T01:10:02;102446.47;;;10.39;100.00
59103;BME280;43999;51.660;5.616;2022-09-21T01:16:01;102438.00;;;10.28;100.00
59103;BME280;43999;51.660;5.616;2022-09-21T01:18:49;102446.03;;;10.22;100.00
59103;BME280;43999;51.660;5.616;2022-09-21T01:21:25;102437.44;;;10.17;100.00
59103;BME280;43999;51.660;5.616;2022-09-21T01:27:23;102448.22;;;10.04;100.00
59103;BME280;43999;51.660;5.616;2022-09-21T01:30:08;102449.25;;;9.99;100.00
59103;BME280;43999;51.660;5.616;2022-09-21T01:32:51;102440.63;;;9.95;100.00
59103;BME280;43999;51.660;5.616;2022-09-21T01:35:32;102447.63;;;9.95;100.00
59103;BME280;43999;51.660;5.616;2022-09-21T01:38:07;102447.63;;;9.95;100.00
59103;BME280;43999;51.660;5.616;2022-09-21T01:40:44;102447.63;;;9.95;100.00
59103;BME280;43999;51.660;5.616;2022-09-21T01:43:23;102445.97;;;9.91;100.00
59103;BME280;43999;51.660;5.616;2022-09-21T01:45:55;102446.00;;;9.89;100.00
59103;BME280;43999;51.660;5.616;2022-09-21T01:48:31;102443.47;;;9.86;100.00
59103;BME280;43999;51.660;5.616;2022-09-21T01:51:05;102436.66;;;9.79;100.00
59103;BME280;43999;51.660;5.616;2022-09-21T01:53:42;102443.72;;;9.75;100.00
59103;BME280;43999;51.660;5.616;2022-09-21T01:56:15;102435.19;;;9.68;100.00
59103;BME280;43999;51.660;5.616;2022-09-21T02:01:59;102434.47;;;9.60;100.00
59103;BME280;43999;51.660;5.616;2022-09-21T02:04:34;102438.03;;;9.59;100.00
59103;BME280;43999;51.660;5.616;2022-09-21T02:07:03;102433.66;;;9.58;100.00
59103;BME280;43999;51.660;5.616;2022-09-21T02:09:32;102438.94;;;9.57;100.00
59103;BME280;43999;51.660;5.616;2022-09-21T02:12:02;102440.78;;;9.53;100.00
59103;BME280;43999;51.660;5.616;2022-09-21T02:14:31;102439.97;;;9.49;100.00
59103;BME280;43999;51.660;5.616;2022-09-21T02:23:19;102440.00;;;9.48;100.00
59103;BME280;43999;51.660;5.616;2022-09-21T02:26:02;102440.94;;;9.47;100.00
59103;BME280;43999;51.660;5.616;2022-09-21T02:31:29;102441.06;;;9.41;100.00
59103;BME280;43999;51.660;5.616;2022-09-21T02:34:26;102444.72;;;9.33;100.00
59103;BME280;43999;51.660;5.616;2022-09-21T02:37:31;102442.34;;;9.23;100.00
59103;BME280;43999;51.660;5.616;2022-09-21T02:40:16;102445.03;;;9.20;100.00
59103;BME280;43999;51.660;5.616;2022-09-21T02:42:51;102445.06;;;9.18;100.00
59103;BME280;43999;51.660;5.616;2022-09-21T02:45:31;102445.09;;;9.17;100.00
59103;BME280;43999;51.660;5.616;2022-09-21T02:48:10;102444.28;;;9.14;100.00
59103;BME280;43999;51.660;5.616;2022-09-21T02:50:44;102448.69;;;9.12;100.00
59103;BME280;43999;51.660;5.616;2022-09-21T02:53:14;102443.53;;;9.09;100.00
59103;BME280;43999;51.660;5.616;2022-09-21T02:55:49;102437.41;;;9.09;100.00
59103;BME280;43999;51.660;5.616;2022-09-21T02:58:23;102446.25;;;9.05;100.00
59103;BME280;43999;51.660;5.616;2022-09-21T03:00:53;102442.84;;;9.00;100.00
59103;BME280;43999;51.660;5.616;2022-09-21T03:03:22;102442.88;;;8.98;100.00
59103;BME280;43999;51.660;5.616;2022-09-21T03:05:53;102444.75;;;8.93;100.00
59103;BME280;43999;51.660;5.616;2022-09-21T03:08:21;102438.72;;;8.89;100.00
59103;BME280;43999;51.660;5.616;2022-09-21T03:10:48;102434.41;;;8.87;100.00
59103;BME280;43999;51.660;5.616;2022-09-21T03:13:16;102444.91;;;8.85;100.00
59103;BME280;43999;51.660;5.616;2022-09-21T03:15:44;102450.13;;;8.85;100.00
59103;BME280;43999;51.660;5.616;2022-09-21T03:18:13;102445.81;;;8.83;100.00
59103;BME280;43999;51.660;5.616;2022-09-21T03:20:43;102449.38;;;8.80;100.00
59103;BME280;43999;51.660;5.616;2022-09-21T03:23:14;102452.88;;;8.79;100.00
59103;BME280;43999;51.660;5.616;2022-09-21T03:25:45;102453.78;;;8.76;100.00
59103;BME280;43999;51.660;5.616;2022-09-21T03:28:18;102455.53;;;8.76;100.00
59103;BME280;43999;51.660;5.616;2022-09-21T03:30:48;102452.09;;;8.75;100.00
59103;BME280;43999;51.660;5.616;2022-09-21T03:33:17;102456.47;;;8.73;100.00
59103;BME280;43999;51.660;5.616;2022-09-21T03:35:49;102456.50;;;8.72;100.00
59103;BME280;43999;51.660;5.616;2022-09-21T03:38:17;102449.63;;;8.68;100.00
59103;BME280;43999;51.660;5.616;2022-09-21T03:40:46;102460.09;;;8.66;100.00
59103;BME280;43999;51.660;5.616;2022-09-21T03:43:15;102455.75;;;8.65;100.00
59103;BME280;43999;51.660;5.616;2022-09-21T03:45:43;102460.19;;;8.61;100.00
59103;BME280;43999;51.660;5.616;2022-09-21T03:48:11;102464.50;;;8.63;100.00
59103;BME280;43999;51.660;5.616;2022-09-21T03:50:38;102461.97;;;8.59;100.00
59103;BME280;43999;51.660;5.616;2022-09-21T03:53:06;102466.38;;;8.57;100.00
59103;BME280;43999;51.660;5.616;2022-09-21T03:55:35;102460.31;;;8.55;100.00
59103;BME280;43999;51.660;5.616;2022-09-21T03:58:02;102472.53;;;8.53;100.00
59103;BME280;43999;51.660;5.616;2022-09-21T04:00:29;102466.47;;;8.51;100.00
59103;BME280;43999;51.660;5.616;2022-09-21T04:02:57;102469.09;;;8.51;100.00
59103;BME280;43999;51.660;5.616;2022-09-21T04:05:24;102463.91;;;8.50;100.00
59103;BME280;43999;51.660;5.616;2022-09-21T04:07:53;102471.69;;;8.53;100.00
59103;BME280;43999;51.660;5.616;2022-09-21T04:10:23;102450.81;;;8.51;100.00
59103;BME280;43999;51.660;5.616;2022-09-21T04:12:56;102459.44;;;8.55;100.00
59103;BME280;43999;51.660;5.616;2022-09-21T04:15:24;102455.97;;;8.54;100.00
59103;BME280;43999;51.660;5.616;2022-09-21T04:17:51;102468.16;;;8.55;100.00
59103;BME280;43999;51.660;5.616;2022-09-21T04:20:20;102457.72;;;8.54;100.00
59103;BME280;43999;51.660;5.616;2022-09-21T04:22:47;102457.75;;;8.52;100.00
59103;BME280;43999;51.660;5.616;2022-09-21T04:25:14;102455.19;;;8.51;100.00
59103;BME280;43999;51.660;5.616;2022-09-21T04:27:44;102462.13;;;8.50;100.00
59103;BME280;43999;51.660;5.616;2022-09-21T04:30:12;102466.50;;;8.50;100.00
59103;BME280;43999;51.660;5.616;2022-09-21T04:32:41;102469.16;;;8.48;100.00
59103;BME280;43999;51.660;5.616;2022-09-21T04:35:09;102464.00;;;8.45;100.00
59103;BME280;43999;51.660;5.616;2022-09-21T04:37:36;102464.00;;;8.45;100.00
59103;BME280;43999;51.660;5.616;2022-09-21T04:40:04;102466.59;;;8.45;100.00
59103;BME280;43999;51.660;5.616;2022-09-21T04:42:32;102464.88;;;8.41;100.00
59103;BME280;43999;51.660;5.616;2022-09-21T04:44:59;102464.88;;;8.41;100.00
59103;BME280;43999;51.660;5.616;2022-09-21T04:47:29;102467.47;;;8.42;100.00
59103;BME280;43999;51.660;5.616;2022-09-21T04:49:56;102472.69;;;8.46;100.00
59103;BME280;43999;51.660;5.616;2022-09-21T04:52:24;102479.63;;;8.47;100.00
59103;BME280;43999;51.660;5.616;2022-09-21T04:54:51;102477.94;;;8.44;100.00
59103;BME280;43999;51.660;5.616;2022-09-21T04:57:19;102474.50;;;8.40;100.00
59103;BME280;43999;51.660;5.616;2022-09-21T04:59:48;102476.28;;;8.38;100.00
59103;BME280;43999;51.660;5.616;2022-09-21T05:02:15;102475.41;;;8.38;100.00
59103;BME280;43999;51.660;5.616;2022-09-21T05:04:47;102487.56;;;8.39;100.00
59103;BME280;43999;51.660;5.616;2022-09-21T05:07:17;102485.81;;;8.39;100.00
59103;BME280;43999;51.660;5.616;2022-09-21T05:09:44;102484.09;;;8.40;100.00
59103;BME280;43999;51.660;5.616;2022-09-21T05:12:33;102484.09;;;8.40;100.00
59103;BME280;43999;51.660;5.616;2022-09-21T05:15:07;102484.94;;;8.40;100.00
59103;BME280;43999;51.660;5.616;2022-09-21T05:17:37;102489.34;;;8.38;100.00
59103;BME280;43999;51.660;5.616;2022-09-21T05:20:04;102488.47;;;8.38;100.00
59103;BME280;43999;51.660;5.616;2022-09-21T05:22:32;102491.06;;;8.38;100.00
59103;BME280;43999;51.660;5.616;2022-09-21T05:24:59;102493.69;;;8.38;100.00
59103;BME280;43999;51.660;5.616;2022-09-21T05:27:26;102493.75;;;8.35;100.00
59103;BME280;43999;51.660;5.616;2022-09-21T05:29:54;102501.56;;;8.35;100.00
59103;BME280;43999;51.660;5.616;2022-09-21T05:35:23;102501.63;;;8.32;100.00
59103;BME280;43999;51.660;5.616;2022-09-21T05:38:30;102505.13;;;8.32;100.00
59103;BME280;43999;51.660;5.616;2022-09-21T05:40:58;102501.56;;;8.35;100.00
59103;BME280;43999;51.660;5.616;2022-09-21T05:43:25;102503.34;;;8.33;100.00
59103;BME280;43999;51.660;5.616;2022-09-21T05:46:16;102499.09;;;8.27;100.00
59103;BME280;43999;51.660;5.616;2022-09-21T05:49:18;102507.78;;;8.29;100.00
59103;BME280;43999;51.660;5.616;2022-09-21T06:00:27;102516.72;;;8.16;100.00
59103;BME280;43999;51.660;5.616;2022-09-21T06:03:29;102520.16;;;8.16;100.00
59103;BME280;43999;51.660;5.616;2022-09-21T06:05:57;102520.16;;;8.18;100.00
59103;BME280;43999;51.660;5.616;2022-09-21T06:08:25;102521.81;;;8.22;100.00
59103;BME280;43999;51.660;5.616;2022-09-21T06:10:53;102521.78;;;8.25;100.00
59103;BME280;43999;51.660;5.616;2022-09-21T06:13:20;102524.31;;;8.30;100.00
59103;BME280;43999;51.660;5.616;2022-09-21T06:15:48;102521.63;;;8.34;100.00
59103;BME280;43999;51.660;5.616;2022-09-21T06:18:15;102526.75;;;8.39;100.00
59103;BME280;43999;51.660;5.616;2022-09-21T06:20:44;102535.34;;;8.47;100.00
59103;BME280;43999;51.660;5.616;2022-09-21T06:23:12;102534.34;;;8.54;100.00
59103;BME280;43999;51.660;5.616;2022-09-21T06:25:41;102534.22;;;8.62;100.00
59103;BME280;43999;51.660;5.616;2022-09-21T06:28:10;102533.22;;;8.69;100.00
59103;BME280;43999;51.660;5.616;2022-09-21T06:30:38;102533.06;;;8.78;100.00
59103;BME280;43999;51.660;5.616;2022-09-21T06:33:08;102536.38;;;8.87;100.00
59103;BME280;43999;51.660;5.616;2022-09-21T06:35:35;102523.13;;;8.96;100.00
59103;BME280;43999;51.660;5.616;2022-09-21T06:38:05;102529.00;;;9.06;100.00
59103;BME280;43999;51.660;5.616;2022-09-21T06:40:35;102525.28;;;9.18;100.00
59103;BME280;43999;51.660;5.616;2022-09-21T06:43:03;102526.78;;;9.28;100.00
59103;BME280;43999;51.660;5.616;2022-09-21T06:45:31;102523.06;;;9.40;100.00
59103;BME280;43999;51.660;5.616;2022-09-21T06:47:59;102524.59;;;9.50;100.00
59103;BME280;43999;51.660;5.616;2022-09-21T06:50:26;102531.25;;;9.63;100.00
59103;BME280;43999;51.660;5.616;2022-09-21T06:52:53;102528.38;;;9.74;100.00
59103;BME280;43999;51.660;5.616;2022-09-21T06:55:20;102525.56;;;9.83;100.00
59103;BME280;43999;51.660;5.616;2022-09-21T06:57:48;102525.28;;;9.94;100.00
59103;BME280;43999;51.660;5.616;2022-09-21T07:00:17;102526.84;;;10.03;100.00
59103;BME280;43999;51.660;5.616;2022-09-21T07:02:44;102531.81;;;10.14;100.00
59103;BME280;43999;51.660;5.616;2022-09-21T07:05:12;102529.78;;;10.25;100.00
59103;BME280;43999;51.660;5.616;2022-09-21T07:07:39;102533.06;;;10.35;100.00
59103;BME280;43999;51.660;5.616;2022-09-21T07:10:07;102530.19;;;10.46;100.00
59103;BME280;43999;51.660;5.616;2022-09-21T07:12:41;102536.03;;;10.55;100.00
59103;BME280;43999;51.660;5.616;2022-09-21T07:15:09;102527.06;;;10.63;100.00
59103;BME280;43999;51.660;5.616;2022-09-21T07:17:37;102531.22;;;10.71;100.00
59103;BME280;43999;51.660;5.616;2022-09-21T07:20:07;102538.84;;;10.81;100.00
59103;BME280;43999;51.660;5.616;2022-09-21T07:22:38;102536.84;;;10.89;100.00
59103;BME280;43999;51.660;5.616;2022-09-21T07:25:05;102530.53;;;10.96;100.00
59103;BME280;43999;51.660;5.616;2022-09-21T07:27:33;102535.59;;;11.02;100.00
59103;BME280;43999;51.660;5.616;2022-09-21T07:30:00;102531.97;;;11.08;100.00
59103;BME280;43999;51.660;5.616;2022-09-21T07:32:27;102534.38;;;11.16;100.00
59103;BME280;43999;51.660;5.616;2022-09-21T07:34:55;102539.44;;;11.22;100.00
59103;BME280;43999;51.660;5.616;2022-09-21T07:37:23;102529.75;;;11.24;100.00
59103;BME280;43999;51.660;5.616;2022-09-21T07:39:52;102533.13;;;11.27;100.00
59103;BME280;43999;51.660;5.616;2022-09-21T07:42:20;102530.34;;;11.32;100.00
59103;BME280;43999;51.660;5.616;2022-09-21T07:44:48;102514.53;;;11.35;100.00
59103;BME280;43999;51.660;5.616;2022-09-21T07:47:17;102531.94;;;11.38;100.00
59103;BME280;43999;51.660;5.616;2022-09-21T07:49:44;102524.06;;;11.38;100.00
59103;BME280;43999;51.660;5.616;2022-09-21T07:52:12;102527.50;;;11.40;100.00
59103;BME280;43999;51.660;5.616;2022-09-21T07:54:41;102527.31;;;11.46;100.00
59103;BME280;43999;51.660;5.616;2022-09-21T07:57:08;102523.75;;;11.48;100.00
59103;BME280;43999;51.660;5.616;2022-09-21T07:59:53;102530.63;;;11.53;100.00
59103;BME280;43999;51.660;5.616;2022-09-21T08:02:24;102525.19;;;11.59;100.00
59103;BME280;43999;51.660;5.616;2022-09-21T08:04:51;102525.91;;;11.64;100.00
59103;BME280;43999;51.660;5.616;2022-09-21T08:07:19;102519.81;;;11.63;100.00
59103;BME280;43999;51.660;5.616;2022-09-21T08:09:47;102522.44;;;11.63;100.00
59103;BME280;43999;51.660;5.616;2022-09-21T08:12:16;102518.72;;;11.69;100.00
59103;BME280;43999;51.660;5.616;2022-09-21T08:14:46;102516.09;;;11.69;100.00
59103;BME280;43999;51.660;5.616;2022-09-21T08:17:14;102519.50;;;11.73;100.00
59103;BME280;43999;51.660;5.616;2022-09-21T08:19:41;102512.28;;;11.79;100.00
59103;BME280;43999;51.660;5.616;2022-09-21T08:22:08;102518.13;;;11.88;100.00
59103;BME280;43999;51.660;5.616;2022-09-21T08:24:37;102521.50;;;11.93;100.00
59103;BME280;43999;51.660;5.616;2022-09-21T08:27:06;102523.97;;;11.97;100.00
59103;BME280;43999;51.660;5.616;2022-09-21T08:29:34;102524.81;;;11.99;100.00
59103;BME280;43999;51.660;5.616;2022-09-21T08:32:02;102523.78;;;12.04;100.00
59103;BME280;43999;51.660;5.616;2022-09-21T08:34:30;102527.19;;;12.07;100.00
59103;BME280;43999;51.660;5.616;2022-09-21T08:36:57;102531.41;;;12.11;100.00
59103;BME280;43999;51.660;5.616;2022-09-21T08:39:24;102529.50;;;12.16;100.00
59103;BME280;43999;51.660;5.616;2022-09-21T08:47:34;102528.97;;;12.32;100.00
59103;BME280;43999;51.660;5.616;2022-09-21T08:50:18;102535.72;;;12.39;100.00
59103;BME280;43999;51.660;5.616;2022-09-21T08:53:04;102531.06;;;12.47;100.00
59103;BME280;43999;51.660;5.616;2022-09-21T08:55:37;102539.56;;;12.55;100.00
59103;BME280;43999;51.660;5.616;2022-09-21T08:58:19;102529.72;;;12.61;100.00
59103;BME280;43999;51.660;5.616;2022-09-21T09:07:32;102546.09;;;12.69;100.00
59103;BME280;43999;51.660;5.616;2022-09-21T09:10:36;102542.38;;;12.74;100.00
59103;BME280;43999;51.660;5.616;2022-09-21T09:16:55;102545.38;;;12.89;100.00
59103;BME280;43999;51.660;5.616;2022-09-21T09:19:50;102549.53;;;12.95;100.00
59103;BME280;43999;51.660;5.616;2022-09-21T09:22:33;102543.31;;;12.97;100.00
59103;BME280;43999;51.660;5.616;2022-09-21T09:25:17;102549.97;;;13.07;100.00
59103;BME280;43999;51.660;5.616;2022-09-21T09:27:51;102552.38;;;13.14;100.00
59103;BME280;43999;51.660;5.616;2022-09-21T09:30:24;102540.84;;;13.16;100.00
59103;BME280;43999;51.660;5.616;2022-09-21T09:36:04;102537.63;;;13.33;97.16
59103;BME280;43999;51.660;5.616;2022-09-21T09:38:41;102539.16;;;13.39;95.52
59103;BME280;43999;51.660;5.616;2022-09-21T09:50:29;102548.00;;;13.60;93.38
59103;BME280;43999;51.660;5.616;2022-09-21T09:53:18;102551.91;;;13.72;92.58
59103;BME280;43999;51.660;5.616;2022-09-21T09:55:52;102542.69;;;13.84;93.75
59103;BME280;43999;51.660;5.616;2022-09-21T09:58:28;102541.50;;;13.91;92.61
59103;BME280;43999;51.660;5.616;2022-09-21T10:00:57;102535.59;;;14.06;93.15
59103;BME280;43999;51.660;5.616;2022-09-21T10:03:26;102543.59;;;14.25;93.00
59103;BME280;43999;51.660;5.616;2022-09-21T10:05:54;102540.06;;;14.47;91.19
59103;BME280;43999;51.660;5.616;2022-09-21T10:11:05;102543.66;;;14.85;87.69
59103;BME280;43999;51.660;5.616;2022-09-21T10:13:36;102538.47;;;15.03;78.47
59103;BME280;43999;51.660;5.616;2022-09-21T10:16:19;102544.91;;;15.16;78.24
59103;BME280;43999;51.660;5.616;2022-09-21T10:18:53;102542.63;;;15.28;81.90
59103;BME280;43999;51.660;5.616;2022-09-21T10:21:38;102540.06;;;15.45;79.65
59103;BME280;43999;51.660;5.616;2022-09-21T10:24:14;102527.91;;;15.60;75.43
59103;BME280;43999;51.660;5.616;2022-09-21T10:26:54;102535.66;;;15.82;70.60
59103;BME280;43999;51.660;5.616;2022-09-21T10:29:39;102529.94;;;15.91;69.83
59103;BME280;43999;51.660;5.616;2022-09-21T10:34:58;102532.13;;;16.69;71.52
59103;BME280;43999;51.660;5.616;2022-09-21T10:37:33;102525.41;;;17.61;65.77
59103;BME280;43999;51.660;5.616;2022-09-21T10:40:05;102518.59;;;18.48;68.18
59103;BME280;43999;51.660;5.616;2022-09-21T10:42:49;102522.53;;;19.27;65.95
59103;BME280;43999;51.660;5.616;2022-09-21T10:45:22;102520.13;;;19.51;62.56
59103;BME280;43999;51.660;5.616;2022-09-21T10:48:14;102517.94;;;20.11;59.87
59103;BME280;43999;51.660;5.616;2022-09-21T10:50:46;102515.88;;;20.80;56.38
59103;BME280;43999;51.660;5.616;2022-09-21T11:01:36;102515.91;;;21.90;50.23
59103;BME280;43999;51.660;5.616;2022-09-21T11:04:14;102508.38;;;21.83;46.50
59103;BME280;43999;51.660;5.616;2022-09-21T11:06:53;102517.94;;;21.51;48.45
59103;BME280;43999;51.660;5.616;2022-09-21T11:09:38;102508.63;;;21.19;48.32
59103;BME280;43999;51.660;5.616;2022-09-21T11:15:16;102502.69;;;20.66;49.43
59103;BME280;43999;51.660;5.616;2022-09-21T11:18:08;102513.44;;;20.51;48.74
59103;BME280;43999;51.660;5.616;2022-09-21T11:21:08;102502.97;;;20.35;48.02
59103;BME280;43999;51.660;5.616;2022-09-21T11:23:54;102507.34;;;20.23;48.09
59103;BME280;43999;51.660;5.616;2022-09-21T11:26:53;102505.69;;;19.95;46.91
59103;BME280;43999;51.660;5.616;2022-09-21T11:39:12;102502.94;;;18.57;52.04
59103;BME280;43999;51.660;5.616;2022-09-21T11:44:40;102508.59;;;18.22;51.80
59103;BME280;43999;51.660;5.616;2022-09-21T11:53:24;102488.00;;;17.97;50.55
59103;BME280;43999;51.660;5.616;2022-09-21T11:56:24;102486.53;;;17.91;51.09
59103;BME280;43999;51.660;5.616;2022-09-21T12:05:23;102481.44;;;17.88;50.23
59103;BME280;43999;51.660;5.616;2022-09-21T12:08:23;102482.41;;;18.02;48.57
59103;BME280;43999;51.660;5.616;2022-09-21T12:11:34;102486.22;;;18.12;47.92
59103;BME280;43999;51.660;5.616;2022-09-21T12:19:47;102479.78;;;18.16;49.21
59103;BME280;43999;51.660;5.616;2022-09-21T12:22:27;102476.00;;;18.20;47.87
59103;BME280;43999;51.660;5.616;2022-09-21T12:27:41;102467.63;;;18.12;48.42
59103;BME280;43999;51.660;5.616;2022-09-21T12:30:19;102464.16;;;18.12;48.57
59103;BME280;43999;51.660;5.616;2022-09-21T12:35:43;102457.81;;;18.28;50.39
59103;BME280;43999;51.660;5.616;2022-09-21T12:38:25;102450.78;;;18.27;50.53
59103;BME280;43999;51.660;5.616;2022-09-21T12:44:41;102443.72;;;18.42;50.85
59103;BME280;43999;51.660;5.616;2022-09-21T12:50:04;102440.22;;;18.42;51.29
59103;BME280;43999;51.660;5.616;2022-09-21T12:52:39;102434.03;;;18.41;50.94
59103;BME280;43999;51.660;5.616;2022-09-21T12:55:21;102446.53;;;18.39;51.46
59103;BME280;43999;51.660;5.616;2022-09-21T13:07:27;102429.47;;;18.29;50.67
59103;BME280;43999;51.660;5.616;2022-09-21T13:13:01;102424.66;;;18.36;50.77
59103;BME280;43999;51.660;5.616;2022-09-21T13:15:32;102424.38;;;18.40;49.33
59103;BME280;43999;51.660;5.616;2022-09-21T13:20:48;102422.19;;;18.47;47.72
59103;BME280;43999;51.660;5.616;2022-09-21T13:23:26;102428.63;;;18.43;48.90
59103;BME280;43999;51.660;5.616;2022-09-21T13:26:05;102429.28;;;18.46;49.06
59103;BME280;43999;51.660;5.616;2022-09-21T13:39:43;102413.44;;;18.45;47.77
59103;BME280;43999;51.660;5.616;2022-09-21T13:42:45;102418.66;;;18.46;47.47
59103;BME280;43999;51.660;5.616;2022-09-21T13:47:53;102410.03;;;18.43;47.88
59103;BME280;43999;51.660;5.616;2022-09-21T13:50:37;102416.09;;;18.45;48.15
59103;BME280;43999;51.660;5.616;2022-09-21T13:53:20;102408.91;;;18.47;48.61
59103;BME280;43999;51.660;5.616;2022-09-21T13:55:53;102419.53;;;18.47;47.53
59103;BME280;43999;51.660;5.616;2022-09-21T13:58:29;102404.63;;;18.44;48.07
59103;BME280;43999;51.660;5.616;2022-09-21T14:01:03;102410.03;;;18.43;49.09
59103;BME280;43999;51.660;5.616;2022-09-21T14:04:00;102397.84;;;18.40;47.77
59103;BME280;43999;51.660;5.616;2022-09-21T14:06:40;102400.19;;;18.45;46.80
59103;BME280;43999;51.660;5.616;2022-09-21T14:09:21;102394.31;;;18.40;47.80
59103;BME280;43999;51.660;5.616;2022-09-21T14:11:58;102395.09;;;18.42;48.35
59103;BME280;43999;51.660;5.616;2022-09-21T14:14:34;102396.59;;;18.46;47.89
59103;BME280;43999;51.660;5.616;2022-09-21T14:17:05;102390.53;;;18.44;48.21
59103;BME280;43999;51.660;5.616;2022-09-21T14:28:54;102381.22;;;18.51;48.95
59103;BME280;43999;51.660;5.616;2022-09-21T14:31:28;102383.03;;;18.51;47.46
59103;BME280;43999;51.660;5.616;2022-09-21T14:34:02;102373.34;;;18.50;48.29
59103;BME280;43999;51.660;5.616;2022-09-21T14:36:41;102374.03;;;18.53;49.10
59103;BME280;43999;51.660;5.616;2022-09-21T14:39:22;102376.19;;;18.61;48.50
59103;BME280;43999;51.660;5.616;2022-09-21T14:41:53;102378.34;;;18.69;49.17
59103;BME280;43999;51.660;5.616;2022-09-21T14:44:26;102371.03;;;18.72;49.20
59103;BME280;43999;51.660;5.616;2022-09-21T14:47:08;102369.38;;;18.98;48.92
59103;BME280;43999;51.660;5.616;2022-09-21T14:50:16;102373.59;;;19.56;47.37
59103;BME280;43999;51.660;5.616;2022-09-21T14:56:01;102361.16;;;20.33;44.04
59103;BME280;43999;51.660;5.616;2022-09-21T14:58:35;102363.59;;;20.36;44.53
59103;BME280;43999;51.660;5.616;2022-09-21T15:11:08;102355.38;;;23.17;40.89
59103;BME280;43999;51.660;5.616;2022-09-21T15:17:25;102348.97;;;24.24;38.06
59103;BME280;43999;51.660;5.616;2022-09-21T15:19:57;102344.38;;;24.55;37.30
59103;BME280;43999;51.660;5.616;2022-09-21T15:22:26;102338.25;;;24.74;34.80
59103;BME280;43999;51.660;5.616;2022-09-21T15:25:00;102334.88;;;24.82;34.19
59103;BME280;43999;51.660;5.616;2022-09-21T15:27:30;102332.75;;;24.85;33.53
59103;BME280;43999;51.660;5.616;2022-09-21T15:30:02;102339.66;;;24.98;34.33
59103;BME280;43999;51.660;5.616;2022-09-21T15:32:39;102334.84;;;25.11;32.46
59103;BME280;43999;51.660;5.616;2022-09-21T15:37:45;102334.25;;;25.47;31.63
59103;BME280;43999;51.660;5.616;2022-09-21T15:40:35;102335.56;;;25.43;32.57
59103;BME280;43999;51.660;5.616;2022-09-21T15:46:05;102328.66;;;25.30;32.67
59103;BME280;43999;51.660;5.616;2022-09-21T15:48:38;102327.06;;;25.28;32.97
59103;BME280;43999;51.660;5.616;2022-09-21T15:57:01;102321.59;;;24.80;32.42
59103;BME280;43999;51.660;5.616;2022-09-21T15:59:34;102326.66;;;24.64;33.69
59103;BME280;43999;51.660;5.616;2022-09-21T16:02:10;102319.00;;;24.49;34.19
59103;BME280;43999;51.660;5.616;2022-09-21T16:04:47;102321.09;;;24.46;34.25
59103;BME280;43999;51.660;5.616;2022-09-21T16:07:36;102330.38;;;24.32;33.80
59103;BME280;43999;51.660;5.616;2022-09-21T16:13:01;102330.63;;;23.36;35.39
59103;BME280;43999;51.660;5.616;2022-09-21T16:16:10;102320.94;;;22.48;36.55
59103;BME280;43999;51.660;5.616;2022-09-21T16:18:45;102326.94;;;21.72;37.86
59103;BME280;43999;51.660;5.616;2022-09-21T16:26:58;102327.53;;;19.94;41.94
59103;BME280;43999;51.660;5.616;2022-09-21T16:29:38;102326.56;;;19.56;42.82
59103;BME280;43999;51.660;5.616;2022-09-21T16:32:19;102328.94;;;19.21;43.76
59103;BME280;43999;51.660;5.616;2022-09-21T16:37:56;102323.41;;;18.56;45.63
59103;BME280;43999;51.660;5.616;2022-09-21T16:40:29;102324.00;;;18.33;45.54